sensor_id;sensor_type;location;lat;lon;timestamp;pressure;altitude;pressure_sealevel;temperature;humidity
75409;BME280;63979;55.644;37.734;2024-02-16T00:01:13;101983.34;;;-8.33;73.75
75409;BME280;63979;55.644;37.734;2024-02-16T00:06:14;101993.06;;;-8.48;73.93
75409;BME280;63979;55.644;37.734;2024-02-16T00:11:14;101986.19;;;-8.48;73.67
75409;BME280;63979;55.644;37.734;2024-02-16T00:16:15;101993.06;;;-8.48;74.16
75409;BME280;63979;55.644;37.734;2024-02-16T00:21:16;101988.59;;;-8.53;74.40
75409;BME280;63979;55.644;37.734;2024-02-16T00:26:17;101980.94;;;-8.50;74.13
75409;BME280;63979;55.644;37.734;2024-02-16T00:31:18;101983.28;;;-8.56;74.59
75409;BME280;63979;55.644;37.734;2024-02-16T00:36:20;101972.44;;;-8.47;74.36
75409;BME280;63979;55.644;37.734;2024-02-16T00:41:22;101967.81;;;-8.33;74.01
75409;BME280;63979;55.644;37.734;2024-02-16T00:46:23;101964.03;;;-8.21;73.93
75409;BME280;63979;55.644;37.734;2024-02-16T00:51:24;101951.78;;;-8.25;74.45
75409;BME280;63979;55.644;37.734;2024-02-16T00:56:26;101950.38;;;-8.37;74.40
75409;BME280;63979;55.644;37.734;2024-02-16T01:01:27;101917.31;;;-8.44;74.03
75409;BME280;63979;55.644;37.734;2024-02-16T01:06:28;101953.41;;;-8.27;74.32
75409;BME280;63979;55.644;37.734;2024-02-16T01:11:29;101952.22;;;-8.14;73.45
75409;BME280;63979;55.644;37.734;2024-02-16T01:16:29;101959.03;;;-8.16;73.52
75409;BME280;63979;55.644;37.734;2024-02-16T01:21:30;101957.06;;;-8.01;73.21
75409;BME280;63979;55.644;37.734;2024-02-16T01:26:32;101959.47;;;-8.05;72.75
75409;BME280;63979;55.644;37.734;2024-02-16T01:31:33;101927.63;;;-8.03;72.27
75409;BME280;63979;55.644;37.734;2024-02-16T01:36:33;101965.53;;;-7.84;72.32
75409;BME280;63979;55.644;37.734;2024-02-16T01:41:38;101959.16;;;-7.92;72.21
75409;BME280;63979;55.644;37.734;2024-02-16T01:46:39;101955.63;;;-7.94;72.71
75409;BME280;63979;55.644;37.734;2024-02-16T01:51:40;101960.28;;;-7.86;72.71
75409;BME280;63979;55.644;37.734;2024-02-16T01:56:41;101966.13;;;-7.91;72.01
75409;BME280;63979;55.644;37.734;2024-02-16T02:01:42;101916.66;;;-8.18;71.85
75409;BME280;63979;55.644;37.734;2024-02-16T02:06:42;101947.47;;;-8.03;72.69
75409;BME280;63979;55.644;37.734;2024-02-16T02:11:45;101946.72;;;-8.22;72.56
75409;BME280;63979;55.644;37.734;2024-02-16T02:16:46;101945.13;;;-8.18;72.37
75409;BME280;63979;55.644;37.734;2024-02-16T02:21:47;101944.56;;;-8.11;72.60
75409;BME280;63979;55.644;37.734;2024-02-16T02:26:48;101912.75;;;-8.50;72.49
75409;BME280;63979;55.644;37.734;2024-02-16T02:31:49;101944.88;;;-8.24;72.18
75409;BME280;63979;55.644;37.734;2024-02-16T02:36:49;101945.56;;;-8.07;71.85
75409;BME280;63979;55.644;37.734;2024-02-16T02:41:50;101947.72;;;-8.18;71.62
75409;BME280;63979;55.644;37.734;2024-02-16T02:46:51;101949.94;;;-8.27;72.64
75409;BME280;63979;55.644;37.734;2024-02-16T02:51:52;101951.66;;;-8.28;72.21
75409;BME280;63979;55.644;37.734;2024-02-16T02:56:53;101951.91;;;-8.22;72.03
75409;BME280;63979;55.644;37.734;2024-02-16T03:01:54;101949.13;;;-8.26;72.64
75409;BME280;63979;55.644;37.734;2024-02-16T03:06:55;101947.84;;;-8.15;72.15
75409;BME280;63979;55.644;37.734;2024-02-16T03:11:56;101962.06;;;-8.26;71.89
75409;BME280;63979;55.644;37.734;2024-02-16T03:16:57;101959.41;;;-8.07;71.98
75409;BME280;63979;55.644;37.734;2024-02-16T03:21:58;101957.69;;;-8.06;72.14
75409;BME280;63979;55.644;37.734;2024-02-16T03:26:59;101964.78;;;-8.02;71.76
75409;BME280;63979;55.644;37.734;2024-02-16T03:32:01;101951.84;;;-8.23;71.39
75409;BME280;63979;55.644;37.734;2024-02-16T03:37:01;101965.22;;;-8.33;72.05
75409;BME280;63979;55.644;37.734;2024-02-16T03:42:03;101959.34;;;-8.29;72.06
75409;BME280;63979;55.644;37.734;2024-02-16T03:47:04;101972.25;;;-8.31;72.70
75409;BME280;63979;55.644;37.734;2024-02-16T03:52:05;101974.69;;;-8.13;72.24
75409;BME280;63979;55.644;37.734;2024-02-16T03:57:06;101982.84;;;-8.04;71.80
75409;BME280;63979;55.644;37.734;2024-02-16T04:02:11;101984.59;;;-8.03;71.59
75409;BME280;63979;55.644;37.734;2024-02-16T04:07:14;101977.78;;;-8.01;71.59
75409;BME280;63979;55.644;37.734;2024-02-16T04:12:15;101973.25;;;-8.06;71.69
75409;BME280;63979;55.644;37.734;2024-02-16T04:17:15;101924.66;;;-8.33;72.26
75409;BME280;63979;55.644;37.734;2024-02-16T04:22:18;101960.25;;;-8.29;72.47
75409;BME280;63979;55.644;37.734;2024-02-16T04:27:18;101957.13;;;-8.20;72.80
75409;BME280;63979;55.644;37.734;2024-02-16T04:32:19;101956.56;;;-8.13;71.52
75409;BME280;63979;55.644;37.734;2024-02-16T04:37:20;101953.03;;;-8.15;72.29
75409;BME280;63979;55.644;37.734;2024-02-16T04:42:21;101942.78;;;-8.12;72.36
75409;BME280;63979;55.644;37.734;2024-02-16T04:47:22;101942.03;;;-8.09;72.53
75409;BME280;63979;55.644;37.734;2024-02-16T04:52:22;101944.06;;;-8.44;72.75
75409;BME280;63979;55.644;37.734;2024-02-16T04:57:23;101954.63;;;-8.39;73.54
75409;BME280;63979;55.644;37.734;2024-02-16T05:02:24;101926.91;;;-8.63;72.55
75409;BME280;63979;55.644;37.734;2024-02-16T05:07:25;101956.69;;;-8.31;72.49
75409;BME280;63979;55.644;37.734;2024-02-16T05:12:26;101967.63;;;-8.17;72.41
75409;BME280;63979;55.644;37.734;2024-02-16T05:17:27;101946.09;;;-8.16;71.90
75409;BME280;63979;55.644;37.734;2024-02-16T05:22:27;101950.13;;;-8.23;71.75
75409;BME280;63979;55.644;37.734;2024-02-16T05:27:28;101946.84;;;-8.19;71.93
75409;BME280;63979;55.644;37.734;2024-02-16T05:32:29;101939.22;;;-8.36;72.64
75409;BME280;63979;55.644;37.734;2024-02-16T05:37:30;101879.28;;;-8.45;72.37
75409;BME280;63979;55.644;37.734;2024-02-16T05:42:34;101948.88;;;-7.91;71.06
75409;BME280;63979;55.644;37.734;2024-02-16T05:47:36;101953.53;;;-8.03;71.24
75409;BME280;63979;55.644;37.734;2024-02-16T05:52:39;101963.72;;;-7.87;71.17
75409;BME280;63979;55.644;37.734;2024-02-16T05:57:40;101982.31;;;-7.74;70.63
75409;BME280;63979;55.644;37.734;2024-02-16T06:02:40;101972.53;;;-7.61;70.24
75409;BME280;63979;55.644;37.734;2024-02-16T06:07:41;101971.53;;;-7.42;69.17
75409;BME280;63979;55.644;37.734;2024-02-16T06:12:43;101979.38;;;-7.18;68.74
75409;BME280;63979;55.644;37.734;2024-02-16T06:17:43;101972.88;;;-7.07;68.06
75409;BME280;63979;55.644;37.734;2024-02-16T06:22:44;101981.81;;;-6.99;68.32
75409;BME280;63979;55.644;37.734;2024-02-16T06:27:45;101979.16;;;-7.00;67.39
75409;BME280;63979;55.644;37.734;2024-02-16T06:32:46;101976.13;;;-7.12;67.59
75409;BME280;63979;55.644;37.734;2024-02-16T06:37:47;101972.19;;;-6.79;67.68
75409;BME280;63979;55.644;37.734;2024-02-16T06:42:48;101989.38;;;-6.58;67.13
75409;BME280;63979;55.644;37.734;2024-02-16T06:47:49;101980.75;;;-6.81;67.39
75409;BME280;63979;55.644;37.734;2024-02-16T06:52:50;101985.63;;;-6.65;67.26
75409;BME280;63979;55.644;37.734;2024-02-16T06:57:51;101985.75;;;-6.38;66.35
75409;BME280;63979;55.644;37.734;2024-02-16T07:02:51;101990.47;;;-6.52;66.94
75409;BME280;63979;55.644;37.734;2024-02-16T07:07:52;101980.06;;;-6.26;65.95
75409;BME280;63979;55.644;37.734;2024-02-16T07:12:53;101975.19;;;-6.43;65.94
75409;BME280;63979;55.644;37.734;2024-02-16T07:17:54;101941.97;;;-6.77;66.57
75409;BME280;63979;55.644;37.734;2024-02-16T07:22:55;101983.50;;;-6.28;66.87
75409;BME280;63979;55.644;37.734;2024-02-16T07:27:56;101980.66;;;-6.10;65.97
75409;BME280;63979;55.644;37.734;2024-02-16T07:32:58;101980.13;;;-6.00;65.43
75409;BME280;63979;55.644;37.734;2024-02-16T07:37:59;101970.91;;;-5.90;65.79
75409;BME280;63979;55.644;37.734;2024-02-16T07:43:01;101970.13;;;-5.87;65.12
75409;BME280;63979;55.644;37.734;2024-02-16T07:48:01;101968.16;;;-5.68;65.26
75409;BME280;63979;55.644;37.734;2024-02-16T07:53:05;101966.16;;;-6.29;66.10
75409;BME280;63979;55.644;37.734;2024-02-16T07:58:06;101971.97;;;-6.10;66.73
75409;BME280;63979;55.644;37.734;2024-02-16T08:03:25;101967.44;;;-5.90;66.06
75409;BME280;63979;55.644;37.734;2024-02-16T08:08:26;101976.50;;;-6.05;65.89
75409;BME280;63979;55.644;37.734;2024-02-16T08:13:27;101987.78;;;-6.04;65.91
75409;BME280;63979;55.644;37.734;2024-02-16T08:18:28;101988.25;;;-5.62;64.77
75409;BME280;63979;55.644;37.734;2024-02-16T08:23:29;101998.75;;;-5.59;64.65
75409;BME280;63979;55.644;37.734;2024-02-16T08:28:31;101996.72;;;-5.69;64.83
75409;BME280;63979;55.644;37.734;2024-02-16T08:33:31;102016.72;;;-5.93;65.54
75409;BME280;63979;55.644;37.734;2024-02-16T08:38:36;102016.47;;;-5.74;65.47
75409;BME280;63979;55.644;37.734;2024-02-16T08:43:37;101994.44;;;-5.58;65.26
75409;BME280;63979;55.644;37.734;2024-02-16T08:48:38;102007.41;;;-5.60;63.75
75409;BME280;63979;55.644;37.734;2024-02-16T08:53:39;102001.88;;;-5.44;64.39
75409;BME280;63979;55.644;37.734;2024-02-16T08:58:40;102002.09;;;-5.90;65.34
75409;BME280;63979;55.644;37.734;2024-02-16T09:03:40;101982.97;;;-5.65;65.84
75409;BME280;63979;55.644;37.734;2024-02-16T09:08:41;101996.25;;;-5.56;65.14
75409;BME280;63979;55.644;37.734;2024-02-16T09:13:42;101991.88;;;-5.57;65.71
75409;BME280;63979;55.644;37.734;2024-02-16T09:18:43;101959.56;;;-5.65;66.30
75409;BME280;63979;55.644;37.734;2024-02-16T09:23:44;102003.91;;;-5.34;65.22
75409;BME280;63979;55.644;37.734;2024-02-16T09:28:45;101984.91;;;-5.03;64.30
75409;BME280;63979;55.644;37.734;2024-02-16T09:33:47;101998.25;;;-5.20;63.51
75409;BME280;63979;55.644;37.734;2024-02-16T09:38:49;101986.81;;;-5.25;64.20
75409;BME280;63979;55.644;37.734;2024-02-16T09:43:50;101983.63;;;-5.17;63.68
75409;BME280;63979;55.644;37.734;2024-02-16T09:48:54;101978.91;;;-5.28;63.73
75409;BME280;63979;55.644;37.734;2024-02-16T09:53:56;101968.50;;;-5.28;64.28
75409;BME280;63979;55.644;37.734;2024-02-16T09:58:56;101960.09;;;-5.20;63.84
75409;BME280;63979;55.644;37.734;2024-02-16T10:04:07;101946.31;;;-4.86;63.46
75409;BME280;63979;55.644;37.734;2024-02-16T10:09:08;101932.66;;;-4.47;61.28
75409;BME280;63979;55.644;37.734;2024-02-16T10:14:09;101905.50;;;-4.21;60.99
75409;BME280;63979;55.644;37.734;2024-02-16T10:19:10;101921.47;;;-4.09;60.11
75409;BME280;63979;55.644;37.734;2024-02-16T10:24:12;101926.25;;;-4.25;60.62
75409;BME280;63979;55.644;37.734;2024-02-16T10:29:18;101933.66;;;-4.07;61.40
75409;BME280;63979;55.644;37.734;2024-02-16T10:34:24;101927.97;;;-3.91;59.91
75409;BME280;63979;55.644;37.734;2024-02-16T10:39:26;101925.41;;;-4.24;60.19
75409;BME280;63979;55.644;37.734;2024-02-16T10:44:28;101918.53;;;-4.54;61.17
75409;BME280;63979;55.644;37.734;2024-02-16T10:49:29;101901.88;;;-4.60;61.27
75409;BME280;63979;55.644;37.734;2024-02-16T10:54:33;101939.38;;;-4.54;62.19
75409;BME280;63979;55.644;37.734;2024-02-16T10:59:53;101938.28;;;-4.63;61.95
75409;BME280;63979;55.644;37.734;2024-02-16T11:04:55;101929.00;;;-4.52;62.07
75409;BME280;63979;55.644;37.734;2024-02-16T11:09:59;101942.91;;;-4.52;62.26
75409;BME280;63979;55.644;37.734;2024-02-16T11:15:00;101937.00;;;-4.46;61.65
75409;BME280;63979;55.644;37.734;2024-02-16T11:20:01;101945.63;;;-4.16;61.18
75409;BME280;63979;55.644;37.734;2024-02-16T11:25:05;101939.34;;;-4.22;60.36
75409;BME280;63979;55.644;37.734;2024-02-16T11:30:06;101935.72;;;-3.94;60.69
75409;BME280;63979;55.644;37.734;2024-02-16T11:35:10;101929.16;;;-4.15;59.90
75409;BME280;63979;55.644;37.734;2024-02-16T11:40:12;101927.53;;;-4.10;60.59
75409;BME280;63979;55.644;37.734;2024-02-16T11:45:13;101917.06;;;-4.11;60.08
75409;BME280;63979;55.644;37.734;2024-02-16T11:50:14;101930.94;;;-4.12;60.49
75409;BME280;63979;55.644;37.734;2024-02-16T11:55:16;101926.97;;;-3.96;60.58
75409;BME280;63979;55.644;37.734;2024-02-16T12:05:37;101918.84;;;-4.43;60.78
75409;BME280;63979;55.644;37.734;2024-02-16T12:10:38;101925.31;;;-4.60;60.86
75409;BME280;63979;55.644;37.734;2024-02-16T12:15:39;101930.16;;;-4.43;61.12
75409;BME280;63979;55.644;37.734;2024-02-16T12:20:40;101920.78;;;-4.67;62.40
75409;BME280;63979;55.644;37.734;2024-02-16T12:25:41;101935.34;;;-4.76;62.09
75409;BME280;63979;55.644;37.734;2024-02-16T12:30:41;101930.66;;;-4.23;60.80
75409;BME280;63979;55.644;37.734;2024-02-16T12:35:42;101938.97;;;-4.04;60.44
75409;BME280;63979;55.644;37.734;2024-02-16T12:40:44;101942.56;;;-4.32;60.72
75409;BME280;63979;55.644;37.734;2024-02-16T12:45:45;101948.81;;;-4.59;60.89
75409;BME280;63979;55.644;37.734;2024-02-16T12:50:46;101954.59;;;-5.00;61.66
75409;BME280;63979;55.644;37.734;2024-02-16T12:55:47;101955.91;;;-5.15;62.33
75409;BME280;63979;55.644;37.734;2024-02-16T13:00:48;101964.69;;;-5.11;63.42
75409;BME280;63979;55.644;37.734;2024-02-16T13:05:49;101967.53;;;-5.04;62.12
75409;BME280;63979;55.644;37.734;2024-02-16T13:10:50;101970.78;;;-5.11;62.97
75409;BME280;63979;55.644;37.734;2024-02-16T13:15:51;101961.47;;;-4.73;63.21
75409;BME280;63979;55.644;37.734;2024-02-16T13:20:52;101963.31;;;-4.68;63.14
75409;BME280;63979;55.644;37.734;2024-02-16T13:25:53;101956.94;;;-4.80;62.48
75409;BME280;63979;55.644;37.734;2024-02-16T13:30:54;101970.56;;;-4.88;63.06
75409;BME280;63979;55.644;37.734;2024-02-16T13:41:14;101926.31;;;-5.18;63.67
75409;BME280;63979;55.644;37.734;2024-02-16T13:46:15;101962.19;;;-5.08;63.70
75409;BME280;63979;55.644;37.734;2024-02-16T13:51:16;101969.81;;;-5.43;64.63
75409;BME280;63979;55.644;37.734;2024-02-16T13:56:17;101949.00;;;-5.43;64.81
75409;BME280;63979;55.644;37.734;2024-02-16T14:01:19;101963.44;;;-5.52;65.28
75409;BME280;63979;55.644;37.734;2024-02-16T14:06:20;101968.00;;;-5.45;65.70
75409;BME280;63979;55.644;37.734;2024-02-16T14:11:21;101978.72;;;-5.35;66.34
75409;BME280;63979;55.644;37.734;2024-02-16T14:16:22;101967.16;;;-5.44;65.40
75409;BME280;63979;55.644;37.734;2024-02-16T14:21:24;101949.25;;;-5.62;66.65
75409;BME280;63979;55.644;37.734;2024-02-16T14:26:25;101955.97;;;-5.69;66.57
75409;BME280;63979;55.644;37.734;2024-02-16T14:31:26;101953.44;;;-5.67;66.99
75409;BME280;63979;55.644;37.734;2024-02-16T14:36:27;101961.50;;;-5.86;66.82
75409;BME280;63979;55.644;37.734;2024-02-16T14:41:28;101960.16;;;-6.01;66.84
75409;BME280;63979;55.644;37.734;2024-02-16T14:46:30;101958.22;;;-6.08;67.56
75409;BME280;63979;55.644;37.734;2024-02-16T14:51:30;101960.22;;;-5.99;68.01
75409;BME280;63979;55.644;37.734;2024-02-16T14:56:32;101953.09;;;-6.05;68.14
75409;BME280;63979;55.644;37.734;2024-02-16T15:01:33;101950.84;;;-5.94;67.93
75409;BME280;63979;55.644;37.734;2024-02-16T15:06:34;101956.19;;;-6.16;68.36
75409;BME280;63979;55.644;37.734;2024-02-16T15:11:36;101944.66;;;-5.98;67.66
75409;BME280;63979;55.644;37.734;2024-02-16T15:21:58;101950.16;;;-6.15;67.57
75409;BME280;63979;55.644;37.734;2024-02-16T15:26:58;101938.75;;;-6.20;67.43
75409;BME280;63979;55.644;37.734;2024-02-16T15:31:59;101967.47;;;-6.16;67.71
75409;BME280;63979;55.644;37.734;2024-02-16T15:37:01;101962.38;;;-6.13;67.83
75409;BME280;63979;55.644;37.734;2024-02-16T15:42:04;101957.47;;;-6.29;67.53
75409;BME280;63979;55.644;37.734;2024-02-16T15:47:07;101965.75;;;-6.15;68.53
75409;BME280;63979;55.644;37.734;2024-02-16T15:52:11;101952.38;;;-6.01;67.56
75409;BME280;63979;55.644;37.734;2024-02-16T15:57:12;101956.63;;;-6.03;66.51
75409;BME280;63979;55.644;37.734;2024-02-16T16:02:13;101959.72;;;-6.14;67.14
75409;BME280;63979;55.644;37.734;2024-02-16T16:07:15;101966.09;;;-6.30;67.43
75409;BME280;63979;55.644;37.734;2024-02-16T16:12:18;101956.22;;;-6.40;67.15
75409;BME280;63979;55.644;37.734;2024-02-16T16:17:20;101954.94;;;-6.53;67.03
75409;BME280;63979;55.644;37.734;2024-02-16T16:22:23;101966.31;;;-6.49;67.37
75409;BME280;63979;55.644;37.734;2024-02-16T16:27:24;101956.50;;;-6.58;67.74
75409;BME280;63979;55.644;37.734;2024-02-16T16:32:25;101975.31;;;-6.64;67.86
75409;BME280;63979;55.644;37.734;2024-02-16T16:37:26;101977.75;;;-6.68;67.75
75409;BME280;63979;55.644;37.734;2024-02-16T16:42:27;101984.66;;;-6.69;68.08
75409;BME280;63979;55.644;37.734;2024-02-16T16:47:28;101983.00;;;-6.67;68.17
75409;BME280;63979;55.644;37.734;2024-02-16T16:52:29;101981.22;;;-6.68;68.05
75409;BME280;63979;55.644;37.734;2024-02-16T16:57:30;101978.25;;;-6.78;68.62
75409;BME280;63979;55.644;37.734;2024-02-16T17:02:31;101979.81;;;-6.83;68.34
75409;BME280;63979;55.644;37.734;2024-02-16T17:07:33;101974.59;;;-6.83;68.54
75409;BME280;63979;55.644;37.734;2024-02-16T17:12:34;101986.66;;;-6.85;68.33
75409;BME280;63979;55.644;37.734;2024-02-16T17:17:35;101983.22;;;-6.84;68.80
75409;BME280;63979;55.644;37.734;2024-02-16T17:22:36;101974.69;;;-7.04;69.17
75409;BME280;63979;55.644;37.734;2024-02-16T17:27:38;101970.44;;;-7.02;68.78
75409;BME280;63979;55.644;37.734;2024-02-16T17:32:40;101980.31;;;-6.94;69.26
75409;BME280;63979;55.644;37.734;2024-02-16T17:37:41;101976.59;;;-7.22;69.81
75409;BME280;63979;55.644;37.734;2024-02-16T17:42:46;101972.91;;;-7.05;69.17
75409;BME280;63979;55.644;37.734;2024-02-16T17:47:49;101968.56;;;-7.06;69.36
75409;BME280;63979;55.644;37.734;2024-02-16T17:52:50;101956.31;;;-7.10;69.79
75409;BME280;63979;55.644;37.734;2024-02-16T17:57:51;101942.41;;;-7.57;69.80
75409;BME280;63979;55.644;37.734;2024-02-16T18:02:52;101924.16;;;-7.60;70.25
75409;BME280;63979;55.644;37.734;2024-02-16T18:07:54;101967.19;;;-6.97;69.31
75409;BME280;63979;55.644;37.734;2024-02-16T18:18:14;101980.56;;;-6.86;68.57
75409;BME280;63979;55.644;37.734;2024-02-16T18:23:16;101973.66;;;-6.85;68.67
75409;BME280;63979;55.644;37.734;2024-02-16T18:28:17;101950.50;;;-7.03;68.43
75409;BME280;63979;55.644;37.734;2024-02-16T18:33:19;101959.44;;;-6.95;68.62
75409;BME280;63979;55.644;37.734;2024-02-16T18:38:21;101944.00;;;-7.16;68.96
75409;BME280;63979;55.644;37.734;2024-02-16T18:43:22;101949.47;;;-7.31;69.34
75409;BME280;63979;55.644;37.734;2024-02-16T18:48:23;101949.84;;;-7.21;69.05
75409;BME280;63979;55.644;37.734;2024-02-16T18:53:26;101941.63;;;-7.10;68.87
75409;BME280;63979;55.644;37.734;2024-02-16T18:58:27;101944.53;;;-7.01;69.00
75409;BME280;63979;55.644;37.734;2024-02-16T19:03:29;101899.25;;;-7.33;68.98
75409;BME280;63979;55.644;37.734;2024-02-16T19:08:30;101942.38;;;-7.12;68.61
75409;BME280;63979;55.644;37.734;2024-02-16T19:13:31;101901.25;;;-7.26;68.55
75409;BME280;63979;55.644;37.734;2024-02-16T19:23:52;101948.41;;;-7.13;68.66
75409;BME280;63979;55.644;37.734;2024-02-16T19:28:54;101953.59;;;-7.13;68.79
75409;BME280;63979;55.644;37.734;2024-02-16T19:33:55;101944.88;;;-7.15;69.17
75409;BME280;63979;55.644;37.734;2024-02-16T19:38:56;101931.78;;;-7.18;68.31
75409;BME280;63979;55.644;37.734;2024-02-16T19:43:56;101935.38;;;-7.15;68.57
75409;BME280;63979;55.644;37.734;2024-02-16T19:48:57;101929.47;;;-7.33;68.97
75409;BME280;63979;55.644;37.734;2024-02-16T19:53:58;101925.66;;;-7.20;68.80
75409;BME280;63979;55.644;37.734;2024-02-16T19:58:59;101920.94;;;-7.31;68.62
75409;BME280;63979;55.644;37.734;2024-02-16T20:03:59;101917.50;;;-7.30;69.17
75409;BME280;63979;55.644;37.734;2024-02-16T20:09:02;101919.75;;;-7.16;68.79
75409;BME280;63979;55.644;37.734;2024-02-16T20:14:04;101910.88;;;-7.23;68.67
75409;BME280;63979;55.644;37.734;2024-02-16T20:19:06;101918.16;;;-7.35;69.20
75409;BME280;63979;55.644;37.734;2024-02-16T20:24:07;101875.72;;;-7.61;69.26
75409;BME280;63979;55.644;37.734;2024-02-16T20:29:08;101920.09;;;-7.07;68.76
75409;BME280;63979;55.644;37.734;2024-02-16T20:34:09;101915.44;;;-7.16;68.46
75409;BME280;63979;55.644;37.734;2024-02-16T20:39:10;101885.09;;;-7.18;68.56
75409;BME280;63979;55.644;37.734;2024-02-16T20:44:12;101874.44;;;-7.26;68.98
75409;BME280;63979;55.644;37.734;2024-02-16T20:49:14;101901.75;;;-7.12;68.79
75409;BME280;63979;55.644;37.734;2024-02-16T20:54:15;101898.88;;;-7.19;68.79
75409;BME280;63979;55.644;37.734;2024-02-16T20:59:17;101887.06;;;-7.11;68.55
75409;BME280;63979;55.644;37.734;2024-02-16T21:04:36;101865.88;;;-7.24;68.80
75409;BME280;63979;55.644;37.734;2024-02-16T21:09:37;101879.56;;;-7.04;68.35
75409;BME280;63979;55.644;37.734;2024-02-16T21:14:38;101885.91;;;-6.96;68.28
75409;BME280;63979;55.644;37.734;2024-02-16T21:19:41;101878.06;;;-6.97;68.27
75409;BME280;63979;55.644;37.734;2024-02-16T21:24:42;101877.72;;;-6.82;68.18
75409;BME280;63979;55.644;37.734;2024-02-16T21:29:44;101864.44;;;-6.92;68.57
75409;BME280;63979;55.644;37.734;2024-02-16T21:34:47;101867.41;;;-7.05;68.09
75409;BME280;63979;55.644;37.734;2024-02-16T21:39:48;101869.69;;;-6.90;68.33
75409;BME280;63979;55.644;37.734;2024-02-16T21:44:50;101866.88;;;-6.71;67.74
75409;BME280;63979;55.644;37.734;2024-02-16T21:49:50;101865.69;;;-6.80;68.14
75409;BME280;63979;55.644;37.734;2024-02-16T21:54:51;101866.38;;;-6.86;67.86
75409;BME280;63979;55.644;37.734;2024-02-16T21:59:52;101870.31;;;-6.72;67.94
75409;BME280;63979;55.644;37.734;2024-02-16T22:04:53;101875.59;;;-6.69;67.88
75409;BME280;63979;55.644;37.734;2024-02-16T22:09:54;101878.72;;;-6.79;68.20
75409;BME280;63979;55.644;37.734;2024-02-16T22:14:55;101879.28;;;-6.87;68.33
75409;BME280;63979;55.644;37.734;2024-02-16T22:19:57;101859.72;;;-6.78;68.43
75409;BME280;63979;55.644;37.734;2024-02-16T22:24:58;101867.75;;;-6.70;68.31
75409;BME280;63979;55.644;37.734;2024-02-16T22:29:59;101865.22;;;-6.69;68.00
75409;BME280;63979;55.644;37.734;2024-02-16T22:35:00;101817.31;;;-6.78;67.51
75409;BME280;63979;55.644;37.734;2024-02-16T22:40:01;101848.59;;;-6.74;67.43
75409;BME280;63979;55.644;37.734;2024-02-16T22:45:02;101855.72;;;-6.68;67.97
75409;BME280;63979;55.644;37.734;2024-02-16T22:50:04;101849.63;;;-6.69;67.68
75409;BME280;63979;55.644;37.734;2024-02-16T22:55:05;101841.81;;;-6.70;68.06
75409;BME280;63979;55.644;37.734;2024-02-16T23:00:07;101833.84;;;-6.75;67.81
75409;BME280;63979;55.644;37.734;2024-02-16T23:05:23;101837.38;;;-6.73;68.19
75409;BME280;63979;55.644;37.734;2024-02-16T23:10:25;101837.44;;;-6.71;68.22
75409;BME280;63979;55.644;37.734;2024-02-16T23:15:26;101828.47;;;-6.81;68.65
75409;BME280;63979;55.644;37.734;2024-02-16T23:20:27;101822.66;;;-6.74;68.65
75409;BME280;63979;55.644;37.734;2024-02-16T23:25:28;101817.41;;;-6.75;68.08
75409;BME280;63979;55.644;37.734;2024-02-16T23:30:30;101818.09;;;-6.81;68.20
75409;BME280;63979;55.644;37.734;2024-02-16T23:35:30;101805.25;;;-6.76;68.21
75409;BME280;63979;55.644;37.734;2024-02-16T23:40:31;101790.50;;;-6.77;68.36
75409;BME280;63979;55.644;37.734;2024-02-16T23:45:32;101781.84;;;-6.78;68.45
75409;BME280;63979;55.644;37.734;2024-02-16T23:50:34;101771.31;;;-6.82;68.66
75409;BME280;63979;55.644;37.734;2024-02-16T23:55:35;101767.09;;;-6.79;68.78
